Time;durP1;ratioP1;P1;durP2;ratioP2;P2;SDS_P1;SDS_P2;PMS_P1;PMS_P2;Temp;Humidity;BMP_temperature;BMP_pressure;BME280_temperature;BME280_humidity;BME280_pressure;Samples;Min_cycle;Max_cycle;Signal;HPM_P1;HPM_P2
2021/09/09 00:00:32;;;;;;;18.53;11.77;;;;;;;;;;5017391;28;20520;-81
2021/09/09 00:02:59;;;;;;;16.57;12.13;;;;;;;;;;5034959;28;20437;-79
2021/09/09 00:05:25;;;;;;;15.33;12.80;;;;;;;;;;5035150;28;20378;-81
2021/09/09 00:07:51;;;;;;;14.70;12.47;;;;;;;;;;5017324;28;20405;-81
2021/09/09 00:10:18;;;;;;;17.63;13.60;;;;;;;;;;5034642;28;20395;-78
2021/09/09 00:12:44;;;;;;;19.90;12.97;;;;;;;;;;5017255;28;20456;-79
2021/09/09 00:15:10;;;;;;;16.10;12.70;;;;;;;;;;5034761;28;20423;-80
2021/09/09 00:17:36;;;;;;;16.00;13.53;;;;;;;;;;5017366;28;20948;-80
2021/09/09 00:20:03;;;;;;;16.50;12.60;;;;;;;;;;5034484;28;20792;-80
2021/09/09 00:22:29;;;;;;;18.87;12.30;;;;;;;;;;5035049;28;20540;-80
2021/09/09 00:24:55;;;;;;;15.80;12.87;;;;;;;;;;5034765;28;20475;-81
2021/09/09 00:27:21;;;;;;;15.03;13.13;;;;;;;;;;5034675;28;20432;-79
2021/09/09 00:29:46;;;;;;;14.07;12.20;;;;;;;;;;5017036;28;20516;-79
2021/09/09 00:32:12;;;;;;;16.30;11.97;;;;;;;;;;5034795;28;20501;-79
2021/09/09 00:34:38;;;;;;;17.70;11.60;;;;;;;;;;5034723;28;20467;-81
2021/09/09 00:37:05;;;;;;;15.37;12.30;;;;;;;;;;5033995;28;20421;-81
2021/09/09 00:39:31;;;;;;;19.03;12.93;;;;;;;;;;5016517;28;20439;-80
2021/09/09 00:41:56;;;;;;;15.77;12.27;;;;;;;;;;5034553;28;20475;-80
2021/09/09 00:44:23;;;;;;;18.83;11.60;;;;;;;;;;5034411;28;20409;-80
2021/09/09 00:46:59;;;;;;;17.67;13.17;;;;;;;;;;5017064;28;20392;-78
2021/09/09 00:49:25;;;;;;;17.77;13.30;;;;;;;;;;5033820;28;20494;-81
2021/09/09 00:51:51;;;;;;;16.20;12.73;;;;;;;;;;5016746;28;20395;-81
2021/09/09 00:54:17;;;;;;;19.40;14.30;;;;;;;;;;5034348;28;20395;-80
2021/09/09 00:56:43;;;;;;;15.73;12.90;;;;;;;;;;5034333;28;20392;-79
2021/09/09 00:59:09;;;;;;;18.43;13.40;;;;;;;;;;5015936;28;20916;-81
2021/09/09 01:01:35;;;;;;;18.13;14.33;;;;;;;;;;5016608;28;20469;-79
2021/09/09 01:04:01;;;;;;;18.60;14.50;;;;;;;;;;5034002;28;20467;-82
2021/09/09 01:06:27;;;;;;;22.80;16.50;;;;;;;;;;5034013;28;20405;-78
2021/09/09 01:08:53;;;;;;;16.50;14.33;;;;;;;;;;5033701;28;20878;-81
2021/09/09 01:11:19;;;;;;;18.60;14.67;;;;;;;;;;5033883;28;20384;-80
2021/09/09 01:13:51;;;;;;;18.70;15.13;;;;;;;;;;5034081;28;20705;-81
2021/09/09 01:16:17;;;;;;;18.03;14.70;;;;;;;;;;5016550;28;20384;-81
2021/09/09 01:18:43;;;;;;;21.37;15.30;;;;;;;;;;5033714;28;20425;-80
2021/09/09 01:21:09;;;;;;;20.03;15.63;;;;;;;;;;5033690;28;20446;-81
2021/09/09 01:23:36;;;;;;;19.30;15.30;;;;;;;;;;5033612;28;20384;-81
2021/09/09 01:26:03;;;;;;;18.90;14.70;;;;;;;;;;5016357;28;20485;-79
2021/09/09 01:28:29;;;;;;;20.20;15.30;;;;;;;;;;5033595;28;20429;-82
2021/09/09 01:30:55;;;;;;;17.20;14.37;;;;;;;;;;5033269;28;20527;-82
2021/09/09 01:33:21;;;;;;;17.47;15.03;;;;;;;;;;5033622;28;20392;-79
2021/09/09 01:35:47;;;;;;;18.70;14.20;;;;;;;;;;5033519;28;20412;-81
2021/09/09 01:38:22;;;;;;;20.30;14.83;;;;;;;;;;5034015;28;20408;-80
2021/09/09 01:40:48;;;;;;;21.30;14.90;;;;;;;;;;5036271;28;20431;-79
2021/09/09 01:43:15;;;;;;;16.27;13.40;;;;;;;;;;5033645;28;20408;-80
2021/09/09 01:45:41;;;;;;;18.63;14.20;;;;;;;;;;5033337;28;20411;-79
2021/09/09 01:48:07;;;;;;;20.43;14.03;;;;;;;;;;5032840;28;20380;-79
2021/09/09 01:50:33;;;;;;;19.37;14.80;;;;;;;;;;5032924;28;20429;-80
2021/09/09 01:52:59;;;;;;;20.17;15.00;;;;;;;;;;5033301;28;20758;-81
2021/09/09 01:55:25;;;;;;;20.83;15.57;;;;;;;;;;5015787;28;20408;-79
2021/09/09 01:57:51;;;;;;;20.50;15.03;;;;;;;;;;5033124;28;20383;-78
2021/09/09 02:00:17;;;;;;;19.60;15.97;;;;;;;;;;5032865;28;20766;-80
2021/09/09 02:02:43;;;;;;;24.77;15.63;;;;;;;;;;5033088;28;20873;-82
2021/09/09 02:05:10;;;;;;;16.93;14.90;;;;;;;;;;5033144;28;20452;-78
2021/09/09 02:07:36;;;;;;;23.30;16.10;;;;;;;;;;5033096;28;20408;-78
2021/09/09 02:10:03;;;;;;;19.70;15.60;;;;;;;;;;5032671;28;20425;-81
2021/09/09 02:12:29;;;;;;;22.00;16.13;;;;;;;;;;5033054;28;20395;-80
2021/09/09 02:14:55;;;;;;;21.97;16.53;;;;;;;;;;5015612;28;21005;-81
2021/09/09 02:17:21;;;;;;;20.90;16.80;;;;;;;;;;5033076;28;20420;-80
2021/09/09 02:19:47;;;;;;;25.50;16.90;;;;;;;;;;5032592;28;20443;-81
2021/09/09 02:22:13;;;;;;;22.27;16.13;;;;;;;;;;5032901;28;20865;-81
2021/09/09 02:24:44;;;;;;;26.80;17.10;;;;;;;;;;5033065;28;20828;-79
2021/09/09 02:27:11;;;;;;;21.80;15.90;;;;;;;;;;5033121;28;20411;-79
2021/09/09 02:29:37;;;;;;;20.23;16.83;;;;;;;;;;5014907;28;20419;-80
2021/09/09 02:32:03;;;;;;;21.50;17.87;;;;;;;;;;5033012;28;20885;-80
2021/09/09 02:34:29;;;;;;;23.27;17.00;;;;;;;;;;5033134;28;20420;-81
2021/09/09 02:36:55;;;;;;;19.70;15.90;;;;;;;;;;5015425;28;20516;-80
2021/09/09 02:39:21;;;;;;;22.53;16.87;;;;;;;;;;5032394;28;20876;-80
2021/09/09 02:41:47;;;;;;;20.60;15.17;;;;;;;;;;5032891;28;20490;-81
2021/09/09 02:44:13;;;;;;;24.03;16.77;;;;;;;;;;5032754;28;20405;-78
2021/09/09 02:46:39;;;;;;;23.13;17.70;;;;;;;;;;5032878;28;20416;-79
2021/09/09 02:49:05;;;;;;;26.00;17.70;;;;;;;;;;5032527;28;20905;-80
2021/09/09 02:51:31;;;;;;;23.90;16.90;;;;;;;;;;5032696;28;20416;-80
2021/09/09 02:53:57;;;;;;;25.53;15.87;;;;;;;;;;5032871;28;20893;-81
2021/09/09 02:56:23;;;;;;;18.80;16.10;;;;;;;;;;5032733;28;20507;-81
2021/09/09 02:58:49;;;;;;;22.53;16.87;;;;;;;;;;5032278;28;20417;-80
2021/09/09 03:01:15;;;;;;;23.60;16.97;;;;;;;;;;5001632;28;20985;-82
2021/09/09 03:03:41;;;;;;;24.63;17.23;;;;;;;;;;5036308;28;20405;-79
2021/09/09 03:06:07;;;;;;;29.40;18.50;;;;;;;;;;5036201;28;20530;-81
2021/09/09 03:08:33;;;;;;;28.53;19.93;;;;;;;;;;5018378;28;20384;-82
2021/09/09 03:11:00;;;;;;;24.67;20.00;;;;;;;;;;5036165;28;20436;-81
2021/09/09 03:13:26;;;;;;;26.77;20.03;;;;;;;;;;5036207;28;20483;-81
2021/09/09 03:15:52;;;;;;;26.13;19.50;;;;;;;;;;5036071;28;20728;-81
2021/09/09 03:18:18;;;;;;;29.23;20.23;;;;;;;;;;5036133;28;20406;-80
2021/09/09 03:20:44;;;;;;;31.40;21.13;;;;;;;;;;5035631;28;20437;-81
2021/09/09 03:23:10;;;;;;;24.73;19.00;;;;;;;;;;5035996;28;20543;-80
2021/09/09 03:25:36;;;;;;;28.47;19.17;;;;;;;;;;5035963;28;20391;-79
2021/09/09 03:28:02;;;;;;;24.43;18.30;;;;;;;;;;5035917;28;20409;-81
2021/09/09 03:30:31;;;;;;;24.57;18.87;;;;;;;;;;5035371;28;20400;-82
2021/09/09 03:32:57;;;;;;;30.87;20.00;;;;;;;;;;5018467;28;20401;-81
2021/09/09 03:35:23;;;;;;;24.47;18.47;;;;;;;;;;5035684;28;20425;-79
2021/09/09 03:37:49;;;;;;;25.10;20.20;;;;;;;;;;5018054;28;20375;-81
2021/09/09 03:40:15;;;;;;;25.13;19.93;;;;;;;;;;5035192;28;20912;-81
2021/09/09 03:42:41;;;;;;;25.30;19.33;;;;;;;;;;5035909;28;20439;-79
2021/09/09 03:45:07;;;;;;;26.87;19.57;;;;;;;;;;5018474;28;20938;-81
2021/09/09 03:47:34;;;;;;;31.87;23.30;;;;;;;;;;5035753;28;20417;-79
2021/09/09 03:50:00;;;;;;;31.43;19.10;;;;;;;;;;5035190;28;20765;-80
2021/09/09 03:52:26;;;;;;;27.30;20.13;;;;;;;;;;5035496;28;20386;-78
2021/09/09 03:54:52;;;;;;;30.40;19.90;;;;;;;;;;5035446;28;20419;-80
2021/09/09 03:57:18;;;;;;;24.17;16.93;;;;;;;;;;5035533;28;20801;-79
2021/09/09 03:59:44;;;;;;;27.50;17.60;;;;;;;;;;5017533;28;20411;-79
2021/09/09 04:02:10;;;;;;;25.93;18.10;;;;;;;;;;5035195;28;20464;-80
2021/09/09 04:04:36;;;;;;;26.37;17.10;;;;;;;;;;5017566;28;20462;-81
2021/09/09 04:07:02;;;;;;;25.00;17.80;;;;;;;;;;5035103;28;20905;-80
2021/09/09 04:09:28;;;;;;;26.03;15.90;;;;;;;;;;5016992;28;20437;-78
2021/09/09 04:11:54;;;;;;;24.33;18.00;;;;;;;;;;5034413;28;20772;-80
2021/09/09 04:14:20;;;;;;;24.37;17.87;;;;;;;;;;5034989;28;20384;-79
2021/09/09 04:16:46;;;;;;;22.77;15.87;;;;;;;;;;5017026;28;20428;-81
2021/09/09 04:19:12;;;;;;;21.97;16.60;;;;;;;;;;5034515;28;20487;-81
2021/09/09 04:21:38;;;;;;;27.50;18.63;;;;;;;;;;5034877;28;21084;-79
2021/09/09 04:24:04;;;;;;;24.13;15.83;;;;;;;;;;5017254;28;20460;-80
2021/09/09 04:26:30;;;;;;;23.93;16.80;;;;;;;;;;5034743;28;20388;-81
2021/09/09 04:28:56;;;;;;;23.50;16.30;;;;;;;;;;5034100;28;20413;-79
2021/09/09 04:31:22;;;;;;;22.73;16.77;;;;;;;;;;5034590;28;20423;-80
2021/09/09 04:33:48;;;;;;;18.97;14.83;;;;;;;;;;5034947;28;20463;-80
2021/09/09 04:36:14;;;;;;;25.07;15.27;;;;;;;;;;5034693;28;20413;-80
2021/09/09 04:38:40;;;;;;;23.40;16.60;;;;;;;;;;5034367;28;20751;-79
2021/09/09 04:41:06;;;;;;;27.40;16.80;;;;;;;;;;5034445;28;20432;-80
2021/09/09 04:43:34;;;;;;;20.87;16.73;;;;;;;;;;5034691;28;20409;-81
2021/09/09 04:46:00;;;;;;;23.47;17.20;;;;;;;;;;5034616;28;20413;-81
2021/09/09 04:48:27;;;;;;;24.13;17.40;;;;;;;;;;5034607;28;20854;-81
2021/09/09 04:50:53;;;;;;;26.80;17.60;;;;;;;;;;5034074;28;20429;-79
2021/09/09 04:53:19;;;;;;;28.07;17.70;;;;;;;;;;5037743;28;20405;-80
2021/09/09 04:55:45;;;;;;;31.07;19.10;;;;;;;;;;5016678;28;20483;-79
2021/09/09 04:58:11;;;;;;;28.73;18.47;;;;;;;;;;5034198;28;20423;-81
2021/09/09 05:00:37;;;;;;;25.97;17.00;;;;;;;;;;5033927;28;20815;-80
2021/09/09 05:03:03;;;;;;;22.03;15.70;;;;;;;;;;5034399;28;20452;-80
2021/09/09 05:05:29;;;;;;;25.10;18.40;;;;;;;;;;5035340;28;20770;-79
2021/09/09 05:07:55;;;;;;;24.60;18.20;;;;;;;;;;5033719;28;20409;-80
2021/09/09 05:10:21;;;;;;;24.90;17.00;;;;;;;;;;5033450;28;20429;-81
2021/09/09 05:12:47;;;;;;;20.80;15.30;;;;;;;;;;5034029;28;20421;-79
2021/09/09 05:15:13;;;;;;;27.73;17.13;;;;;;;;;;5033647;28;20412;-80
2021/09/09 05:17:39;;;;;;;26.00;17.07;;;;;;;;;;5033797;28;20383;-80
2021/09/09 05:20:06;;;;;;;25.07;16.23;;;;;;;;;;5033741;28;20464;-81
2021/09/09 05:22:33;;;;;;;23.43;15.20;;;;;;;;;;5033868;28;20468;-81
2021/09/09 05:25:00;;;;;;;22.70;16.00;;;;;;;;;;5033635;28;20437;-80
2021/09/09 05:27:26;;;;;;;19.60;14.83;;;;;;;;;;5033719;28;20384;-80
2021/09/09 05:29:52;;;;;;;22.33;17.23;;;;;;;;;;5033514;28;20483;-78
2021/09/09 05:32:18;;;;;;;21.43;16.90;;;;;;;;;;5033605;28;20391;-79
2021/09/09 05:34:44;;;;;;;25.30;16.87;;;;;;;;;;5033838;28;20416;-80
2021/09/09 05:37:10;;;;;;;24.60;16.30;;;;;;;;;;5033577;28;20471;-81
2021/09/09 05:39:36;;;;;;;21.20;17.00;;;;;;;;;;5032856;28;20463;-81
2021/09/09 05:42:02;;;;;;;26.23;17.57;;;;;;;;;;5015579;28;20504;-82
2021/09/09 05:44:28;;;;;;;24.40;18.03;;;;;;;;;;5033096;28;20417;-79
2021/09/09 05:46:54;;;;;;;25.40;17.30;;;;;;;;;;5032956;28;20405;-80
2021/09/09 05:49:20;;;;;;;32.70;15.57;;;;;;;;;;5032581;28;20749;-80
2021/09/09 05:51:46;;;;;;;22.27;17.97;;;;;;;;;;5033343;28;20405;-81
2021/09/09 05:54:12;;;;;;;21.40;15.93;;;;;;;;;;5033464;28;20409;-80
2021/09/09 05:56:38;;;;;;;23.83;17.07;;;;;;;;;;5033252;28;20424;-80
2021/09/09 05:59:04;;;;;;;25.77;16.50;;;;;;;;;;4998984;28;20410;-80
2021/09/09 06:01:30;;;;;;;24.87;16.30;;;;;;;;;;5033042;28;20779;-81
2021/09/09 06:03:57;;;;;;;24.63;17.30;;;;;;;;;;5015463;28;20928;-81
2021/09/09 06:06:25;;;;;;;21.17;15.97;;;;;;;;;;5015495;28;20794;-80
2021/09/09 06:08:51;;;;;;;22.63;14.97;;;;;;;;;;5032597;28;20424;-80
2021/09/09 06:11:17;;;;;;;23.13;15.60;;;;;;;;;;5033188;28;20819;-82
2021/09/09 06:13:43;;;;;;;20.43;14.57;;;;;;;;;;5032947;28;20391;-81
2021/09/09 06:16:09;;;;;;;23.27;14.70;;;;;;;;;;5033062;28;20417;-79
2021/09/09 06:18:35;;;;;;;21.50;12.87;;;;;;;;;;5032687;28;20421;-80
2021/09/09 06:21:02;;;;;;;23.13;15.50;;;;;;;;;;5033287;28;20778;-81
2021/09/09 06:23:28;;;;;;;23.47;14.93;;;;;;;;;;5015335;28;20429;-81
2021/09/09 06:25:54;;;;;;;20.20;13.67;;;;;;;;;;5033096;28;20413;-78
2021/09/09 06:28:20;;;;;;;21.83;13.83;;;;;;;;;;5033572;28;20424;-82
2021/09/09 06:30:46;;;;;;;24.37;14.70;;;;;;;;;;5032680;28;20772;-79
2021/09/09 06:33:12;;;;;;;25.03;14.80;;;;;;;;;;5032954;28;20423;-79
2021/09/09 06:35:38;;;;;;;22.83;13.87;;;;;;;;;;5035176;28;20439;-79
2021/09/09 06:38:04;;;;;;;20.90;14.00;;;;;;;;;;5037043;28;20412;-81
2021/09/09 06:40:30;;;;;;;22.53;13.90;;;;;;;;;;5036160;28;20459;-81
2021/09/09 06:42:56;;;;;;;18.93;13.10;;;;;;;;;;5036603;28;20931;-79
2021/09/09 06:45:22;;;;;;;15.03;12.10;;;;;;;;;;5036807;28;20397;-79
2021/09/09 06:47:48;;;;;;;16.50;12.80;;;;;;;;;;5037441;28;20417;-80
2021/09/09 06:50:14;;;;;;;20.87;13.23;;;;;;;;;;5036264;28;20432;-81
2021/09/09 06:52:40;;;;;;;16.00;11.67;;;;;;;;;;5036575;28;20413;-82
2021/09/09 06:55:07;;;;;;;15.50;12.00;;;;;;;;;;5018849;28;20456;-81
2021/09/09 06:57:33;;;;;;;15.10;11.03;;;;;;;;;;5036516;28;20488;-81
2021/09/09 06:59:59;;;;;;;24.13;11.57;;;;;;;;;;5018578;28;20857;-81
2021/09/09 07:02:25;;;;;;;12.97;10.90;;;;;;;;;;5036325;28;20504;-79
2021/09/09 07:04:51;;;;;;;12.23;10.80;;;;;;;;;;5036540;28;20821;-81
2021/09/09 07:07:16;;;;;;;17.37;10.77;;;;;;;;;;5036399;28;20396;-79
2021/09/09 07:09:42;;;;;;;14.40;11.20;;;;;;;;;;5018299;28;20452;-82
2021/09/09 07:12:08;;;;;;;15.13;11.93;;;;;;;;;;5037530;28;20425;-79
2021/09/09 07:14:34;;;;;;;13.63;10.27;;;;;;;;;;5036170;28;20413;-80
2021/09/09 07:17:00;;;;;;;16.90;10.83;;;;;;;;;;5036103;28;20456;-81
2021/09/09 07:19:26;;;;;;;16.57;10.50;;;;;;;;;;5035664;28;20445;-80
2021/09/09 07:21:52;;;;;;;15.00;10.87;;;;;;;;;;5035916;28;20483;-79
2021/09/09 07:24:19;;;;;;;13.83;11.20;;;;;;;;;;5035828;28;20925;-79
2021/09/09 07:26:45;;;;;;;16.83;10.50;;;;;;;;;;5036039;28;20401;-81
2021/09/09 07:29:13;;;;;;;18.43;11.53;;;;;;;;;;5035520;28;20429;-79
2021/09/09 07:31:39;;;;;;;14.83;10.57;;;;;;;;;;5036148;28;20946;-80
2021/09/09 07:34:05;;;;;;;15.03;10.83;;;;;;;;;;5035974;28;20413;-81
2021/09/09 07:36:31;;;;;;;12.17;9.87;;;;;;;;;;5035998;28;20904;-82
2021/09/09 07:38:57;;;;;;;13.33;11.03;;;;;;;;;;5035403;28;20429;-80
2021/09/09 07:41:23;;;;;;;13.93;11.17;;;;;;;;;;5035741;28;20457;-80
2021/09/09 07:43:49;;;;;;;15.67;11.40;;;;;;;;;;5035784;28;20846;-80
2021/09/09 07:46:15;;;;;;;13.07;10.43;;;;;;;;;;5034327;28;20441;-82
2021/09/09 07:48:41;;;;;;;12.70;10.10;;;;;;;;;;5035331;28;20444;-80
2021/09/09 07:51:07;;;;;;;13.93;10.07;;;;;;;;;;5035318;28;20983;-79
2021/09/09 07:53:33;;;;;;;16.07;11.23;;;;;;;;;;5017795;28;20821;-81
2021/09/09 07:55:59;;;;;;;12.67;10.47;;;;;;;;;;5035670;28;20555;-78
2021/09/09 07:58:25;;;;;;;15.37;9.67;;;;;;;;;;5017932;28;20425;-81
2021/09/09 08:00:51;;;;;;;12.20;9.03;;;;;;;;;;5035607;28;20443;-80
2021/09/09 08:03:17;;;;;;;13.77;10.10;;;;;;;;;;5037901;28;20524;-78
2021/09/09 08:05:43;;;;;;;12.03;10.13;;;;;;;;;;5020382;28;20856;-80
2021/09/09 08:08:09;;;;;;;13.23;9.97;;;;;;;;;;5035623;28;20870;-79
2021/09/09 08:10:35;;;;;;;14.07;9.67;;;;;;;;;;5029756;23;20499;-79
2021/09/09 08:13:01;;;;;;;13.03;10.00;;;;;;;;;;5055654;28;20412;-79
2021/09/09 08:15:27;;;;;;;14.20;10.30;;;;;;;;;;5055421;28;20408;-80
2021/09/09 08:17:53;;;;;;;14.73;9.40;;;;;;;;;;5055299;28;20969;-79
2021/09/09 08:20:19;;;;;;;15.10;9.77;;;;;;;;;;5042335;28;20471;-80
2021/09/09 08:22:45;;;;;;;10.63;9.53;;;;;;;;;;5035223;28;20460;-80
2021/09/09 08:25:12;;;;;;;12.67;9.37;;;;;;;;;;5035746;28;20400;-81
2021/09/09 08:27:38;;;;;;;13.40;8.53;;;;;;;;;;5035282;28;20413;-78
2021/09/09 08:30:05;;;;;;;14.40;9.20;;;;;;;;;;5035011;28;20470;-80
2021/09/09 08:32:31;;;;;;;15.07;9.93;;;;;;;;;;5035358;28;20456;-81
2021/09/09 08:34:57;;;;;;;10.27;9.13;;;;;;;;;;5017323;28;20436;-78
2021/09/09 08:37:24;;;;;;;10.17;7.80;;;;;;;;;;5035430;28;20412;-78
2021/09/09 08:39:50;;;;;;;10.07;8.40;;;;;;;;;;5034750;28;20428;-79
2021/09/09 08:42:18;;;;;;;8.80;7.90;;;;;;;;;;5035342;28;20463;-80
2021/09/09 08:44:44;;;;;;;15.17;8.77;;;;;;;;;;5035361;28;20427;-79
2021/09/09 08:47:10;;;;;;;8.63;7.70;;;;;;;;;;5017411;28;20975;-81
2021/09/09 08:49:36;;;;;;;11.10;8.47;;;;;;;;;;5034553;28;20488;-81
2021/09/09 08:52:04;;;;;;;10.60;7.27;;;;;;;;;;5016593;28;20435;-79
2021/09/09 08:54:31;;;;;;;9.90;6.87;;;;;;;;;;5016949;28;20429;-80
2021/09/09 08:56:57;;;;;;;8.10;5.87;;;;;;;;;;5034402;28;20531;-81
2021/09/09 08:59:23;;;;;;;8.53;6.90;;;;;;;;;;5033752;28;20445;-80
2021/09/09 09:02:09;;;;;;;10.70;7.33;;;;;;;;;;5034192;28;20471;-82
2021/09/09 09:07:39;;;;;;;7.60;6.57;;;;;;;;;;5034395;28;20411;-79
2021/09/09 09:10:07;;;;;;;10.50;6.40;;;;;;;;;;5033620;28;20457;-78
2021/09/09 09:12:39;;;;;;;7.57;6.83;;;;;;;;;;5034257;28;20417;-80
2021/09/09 09:15:15;;;;;;;11.63;7.40;;;;;;;;;;5033785;28;20897;-82
2021/09/09 09:17:55;;;;;;;9.70;6.90;;;;;;;;;;5033995;28;20405;-81
2021/09/09 09:20:21;;;;;;;7.67;6.87;;;;;;;;;;5015744;28;20445;-81
2021/09/09 09:22:47;;;;;;;9.13;7.50;;;;;;;;;;5033724;28;20571;-82
2021/09/09 09:25:14;;;;;;;7.10;6.40;;;;;;;;;;5033633;28;20413;-78
2021/09/09 09:27:47;;;;;;;7.73;5.50;;;;;;;;;;5016117;28;20905;-80
2021/09/09 09:30:13;;;;;;;8.33;6.33;;;;;;;;;;5015621;28;20532;-80
2021/09/09 09:32:52;;;;;;;9.50;6.40;;;;;;;;;;5034044;28;20815;-78
2021/09/09 09:35:19;;;;;;;8.33;7.20;;;;;;;;;;5033874;28;20856;-79
2021/09/09 09:37:52;;;;;;;8.53;6.87;;;;;;;;;;5033777;28;20460;-80
2021/09/09 09:40:24;;;;;;;8.90;6.50;;;;;;;;;;5033269;28;20778;-81
2021/09/09 09:42:50;;;;;;;7.57;6.87;;;;;;;;;;5033846;28;20559;-79
2021/09/09 09:45:16;;;;;;;8.80;6.70;;;;;;;;;;5033460;28;20455;-80
2021/09/09 09:47:42;;;;;;;8.40;6.33;;;;;;;;;;5033495;28;20413;-82
2021/09/09 09:50:22;;;;;;;6.90;6.27;;;;;;;;;;5033175;28;20797;-80
2021/09/09 09:52:48;;;;;;;9.10;6.80;;;;;;;;;;5033408;28;20451;-79
2021/09/09 09:55:15;;;;;;;9.77;6.80;;;;;;;;;;5034208;28;20401;-81
2021/09/09 09:57:54;;;;;;;9.33;6.90;;;;;;;;;;5033415;28;20739;-81
2021/09/09 10:00:21;;;;;;;10.13;7.30;;;;;;;;;;5034005;28;20433;-80
2021/09/09 10:02:54;;;;;;;7.67;6.50;;;;;;;;;;5033213;28;20453;-82
2021/09/09 10:05:21;;;;;;;10.40;6.37;;;;;;;;;;5015660;28;20913;-79
2021/09/09 10:07:47;;;;;;;11.40;7.20;;;;;;;;;;5033232;28;20492;-79
2021/09/09 10:10:13;;;;;;;15.70;6.43;;;;;;;;;;5031764;28;20476;-79
2021/09/09 10:12:44;;;;;;;8.33;7.03;;;;;;;;;;5033008;28;20479;-79
2021/09/09 10:15:12;;;;;;;10.70;6.40;;;;;;;;;;5015327;28;20452;-80
2021/09/09 10:17:38;;;;;;;6.23;5.63;;;;;;;;;;5015914;28;20507;-81
2021/09/09 10:20:23;;;;;;;8.23;6.20;;;;;;;;;;5032742;28;20432;-80
2021/09/09 10:23:06;;;;;;;7.70;6.50;;;;;;;;;;5033003;28;20482;-82
2021/09/09 10:25:53;;;;;;;7.87;6.27;;;;;;;;;;5015164;28;20429;-81
2021/09/09 10:28:50;;;;;;;7.00;6.30;;;;;;;;;;5015528;28;20414;-79
2021/09/09 10:31:18;;;;;;;10.40;6.63;;;;;;;;;;5020629;28;20899;-79
2021/09/09 10:33:52;;;;;;;8.93;5.87;;;;;;;;;;5015334;28;20504;-79
2021/09/09 10:36:38;;;;;;;9.33;7.27;;;;;;;;;;5015311;28;20904;-82
2021/09/09 10:39:04;;;;;;;8.03;6.47;;;;;;;;;;5032583;28;20401;-82
2021/09/09 10:41:30;;;;;;;7.53;6.67;;;;;;;;;;5032707;28;20468;-79
2021/09/09 10:44:00;;;;;;;8.47;6.37;;;;;;;;;;5032837;28;20401;-79
2021/09/09 10:46:30;;;;;;;9.63;6.60;;;;;;;;;;5032895;28;20408;-81
2021/09/09 10:49:08;;;;;;;10.60;6.70;;;;;;;;;;5032421;28;20910;-78
2021/09/09 10:51:34;;;;;;;7.57;6.60;;;;;;;;;;5032890;28;20405;-79
2021/09/09 10:54:01;;;;;;;8.57;6.93;;;;;;;;;;5032796;28;20771;-81
2021/09/09 10:56:28;;;;;;;7.73;6.63;;;;;;;;;;5015072;28;20424;-81
2021/09/09 10:59:14;;;;;;;7.90;6.93;;;;;;;;;;5032322;28;20405;-80
2021/09/09 11:01:44;;;;;;;10.67;7.77;;;;;;;;;;5032463;28;20990;-83
2021/09/09 11:04:28;;;;;;;14.30;6.93;;;;;;;;;;5032631;28;20411;-81
2021/09/09 11:06:54;;;;;;;11.27;7.23;;;;;;;;;;5032708;28;20435;-83
2021/09/09 11:09:20;;;;;;;14.33;7.30;;;;;;;;;;5032143;28;20467;-81
2021/09/09 11:11:55;;;;;;;12.30;8.27;;;;;;;;;;5015240;28;20501;-80
2021/09/09 11:14:22;;;;;;;8.73;7.10;;;;;;;;;;5032774;28;20412;-80
2021/09/09 11:16:48;;;;;;;19.70;7.50;;;;;;;;;;5032812;28;20415;-82
2021/09/09 11:19:19;;;;;;;10.37;7.93;;;;;;;;;;5032178;28;20547;-80
2021/09/09 11:21:45;;;;;;;10.53;7.23;;;;;;;;;;5034621;28;20530;-82
2021/09/09 11:24:12;;;;;;;14.73;8.07;;;;;;;;;;5035964;28;20499;-81
2021/09/09 11:26:39;;;;;;;9.07;7.37;;;;;;;;;;5036011;28;20405;-81
2021/09/09 11:29:06;;;;;;;14.70;7.00;;;;;;;;;;5035557;28;20409;-82
2021/09/09 11:31:34;;;;;;;15.13;7.43;;;;;;;;;;5035982;28;20408;-80
2021/09/09 11:34:07;;;;;;;9.80;7.27;;;;;;;;;;5035850;28;20401;-81
2021/09/09 11:36:33;;;;;;;8.03;7.23;;;;;;;;;;5035776;28;20809;-80
2021/09/09 11:39:00;;;;;;;10.87;6.73;;;;;;;;;;5035694;28;20495;-81
2021/09/09 11:41:29;;;;;;;15.43;7.20;;;;;;;;;;5017958;28;20459;-79
2021/09/09 11:43:57;;;;;;;9.70;7.63;;;;;;;;;;5035938;28;20405;-80
2021/09/09 11:46:30;;;;;;;12.53;6.77;;;;;;;;;;5035813;28;20499;-80
2021/09/09 11:48:57;;;;;;;9.17;6.20;;;;;;;;;;5035315;28;20768;-81
2021/09/09 11:51:39;;;;;;;10.97;7.90;;;;;;;;;;5035510;28;20764;-82
2021/09/09 11:54:06;;;;;;;11.20;7.27;;;;;;;;;;5035661;28;20412;-81
2021/09/09 11:56:33;;;;;;;13.77;6.77;;;;;;;;;;5035484;28;20487;-79
2021/09/09 11:59:02;;;;;;;11.53;7.20;;;;;;;;;;5035206;28;20409;-80
2021/09/09 12:01:29;;;;;;;12.17;6.43;;;;;;;;;;5035418;28;20421;-81
2021/09/09 12:03:56;;;;;;;20.07;7.30;;;;;;;;;;5035602;28;20428;-81
2021/09/09 12:06:22;;;;;;;9.77;6.30;;;;;;;;;;5035259;28;20408;-80
2021/09/09 12:08:49;;;;;;;11.07;6.43;;;;;;;;;;5034926;28;20894;-79
2021/09/09 12:11:16;;;;;;;10.80;6.67;;;;;;;;;;5035205;28;20432;-79
2021/09/09 12:13:44;;;;;;;8.63;6.03;;;;;;;;;;5035263;28;20413;-81
2021/09/09 12:16:23;;;;;;;8.77;6.37;;;;;;;;;;5035025;28;20401;-80
2021/09/09 12:18:50;;;;;;;9.73;6.20;;;;;;;;;;5016981;28;20417;-78
2021/09/09 12:21:22;;;;;;;9.50;5.90;;;;;;;;;;5034977;28;20846;-81
2021/09/09 12:24:03;;;;;;;12.03;5.77;;;;;;;;;;5034922;28;20437;-79
2021/09/09 12:26:29;;;;;;;7.20;5.80;;;;;;;;;;5034786;28;20474;-81
2021/09/09 12:28:56;;;;;;;5.67;5.13;;;;;;;;;;5034482;28;20411;-80
2021/09/09 12:31:37;;;;;;;11.60;5.40;;;;;;;;;;5034631;28;20419;-81
2021/09/09 12:34:10;;;;;;;11.83;6.27;;;;;;;;;;5034094;28;20408;-79
2021/09/09 12:36:44;;;;;;;11.50;6.17;;;;;;;;;;5034515;28;20423;-81
2021/09/09 12:39:10;;;;;;;9.77;5.03;;;;;;;;;;5034168;28;20501;-80
2021/09/09 12:41:36;;;;;;;9.37;5.07;;;;;;;;;;5016780;28;20802;-78
2021/09/09 12:44:05;;;;;;;8.77;5.23;;;;;;;;;;5034631;28;20441;-83
2021/09/09 12:46:41;;;;;;;8.80;4.90;;;;;;;;;;5016681;28;20972;-81
2021/09/09 12:49:12;;;;;;;7.00;4.67;;;;;;;;;;5034199;28;20929;-82
2021/09/09 12:51:38;;;;;;;7.77;4.60;;;;;;;;;;5034397;28;20416;-81
2021/09/09 12:54:06;;;;;;;5.40;4.07;;;;;;;;;;5016801;28;20424;-81
2021/09/09 12:56:32;;;;;;;5.63;4.07;;;;;;;;;;5034499;28;20409;-80
2021/09/09 12:58:58;;;;;;;6.00;4.07;;;;;;;;;;5034759;28;20423;-79
2021/09/09 13:01:24;;;;;;;5.30;3.43;;;;;;;;;;5034240;28;20911;-79
2021/09/09 13:03:50;;;;;;;3.93;3.43;;;;;;;;;;5034198;28;20810;-81
2021/09/09 13:06:16;;;;;;;3.80;3.20;;;;;;;;;;5034189;28;20463;-83
2021/09/09 13:08:42;;;;;;;5.37;2.90;;;;;;;;;;5033836;28;20420;-82
2021/09/09 13:11:08;;;;;;;3.67;2.87;;;;;;;;;;5016320;28;20453;-82
2021/09/09 13:13:34;;;;;;;3.00;2.40;;;;;;;;;;5033993;28;20440;-80
2021/09/09 13:16:01;;;;;;;4.83;2.67;;;;;;;;;;5034060;28;20413;-80
2021/09/09 13:18:28;;;;;;;8.67;3.00;;;;;;;;;;5033875;28;20417;-82
2021/09/09 13:20:54;;;;;;;2.40;2.20;;;;;;;;;;5033471;28;20440;-82
2021/09/09 13:23:20;;;;;;;5.53;2.63;;;;;;;;;;5033697;28;20559;-82
2021/09/09 13:25:47;;;;;;;4.70;2.53;;;;;;;;;;5033727;28;20409;-82
2021/09/09 13:28:13;;;;;;;5.63;2.77;;;;;;;;;;5033606;28;20409;-80
2021/09/09 13:30:40;;;;;;;3.30;2.60;;;;;;;;;;5033271;28;20450;-82
2021/09/09 13:33:07;;;;;;;3.80;2.50;;;;;;;;;;5015886;28;20456;-82
2021/09/09 13:35:34;;;;;;;4.47;3.33;;;;;;;;;;5033632;28;20413;-80
2021/09/09 13:38:01;;;;;;;8.03;3.30;;;;;;;;;;5033836;28;20443;-80
2021/09/09 13:40:27;;;;;;;3.27;2.80;;;;;;;;;;5032776;28;20436;-82
2021/09/09 13:42:54;;;;;;;7.63;3.17;;;;;;;;;;5015958;28;20539;-81
2021/09/09 13:45:20;;;;;;;7.47;3.13;;;;;;;;;;5032401;28;20922;-81
2021/09/09 13:47:46;;;;;;;3.40;3.10;;;;;;;;;;5032671;28;20532;-80
2021/09/09 13:50:12;;;;;;;6.23;3.10;;;;;;;;;;5032753;28;20455;-81
2021/09/09 13:52:39;;;;;;;8.00;2.90;;;;;;;;;;5015655;28;20405;-79
2021/09/09 13:55:11;;;;;;;5.27;3.43;;;;;;;;;;5033571;28;20782;-82
2021/09/09 13:57:38;;;;;;;3.10;2.80;;;;;;;;;;5033505;28;20748;-80
2021/09/09 14:00:04;;;;;;;4.70;3.37;;;;;;;;;;5033076;28;20420;-83
2021/09/09 14:02:30;;;;;;;6.53;2.83;;;;;;;;;;5033207;28;20456;-82
2021/09/09 14:04:56;;;;;;;6.70;3.10;;;;;;;;;;5033232;28;20439;-80
2021/09/09 14:07:23;;;;;;;3.77;3.17;;;;;;;;;;5033310;28;20404;-81
2021/09/09 14:09:50;;;;;;;5.40;2.80;;;;;;;;;;5014989;28;20449;-79
2021/09/09 14:12:16;;;;;;;5.20;3.00;;;;;;;;;;5033261;28;20417;-81
2021/09/09 14:14:43;;;;;;;7.73;3.80;;;;;;;;;;5033430;28;20409;-80
2021/09/09 14:17:08;;;;;;;5.23;3.20;;;;;;;;;;5033051;28;20467;-80
2021/09/09 14:19:34;;;;;;;6.30;3.60;;;;;;;;;;5032615;28;20437;-81
2021/09/09 14:22:00;;;;;;;4.10;3.70;;;;;;;;;;5015268;28;20460;-80
2021/09/09 14:24:26;;;;;;;4.27;3.50;;;;;;;;;;5033041;28;20413;-82
2021/09/09 14:26:52;;;;;;;9.60;3.93;;;;;;;;;;5032981;28;20441;-79
2021/09/09 14:29:19;;;;;;;9.87;4.07;;;;;;;;;;5014723;28;20487;-79